Sangen Maru — JL5229 — position and weather

sailwx.info

Track history (hours):
 
Tides and Currents Weather Stations Pressure Air Temp Water Temp Dewpoint Dewpoint Depression Visibility Wind Speed Wind Dir Waves Ship Positions

Sangen Maru

Last reported at 2017-Sep-20 06:35 UTC. Time now 2017-Sep-25 13:35 UTC.
Position N 34°53' E 139°49'.

Length 72 m; draft 4.5 m.

Type: Tanker. MMSI: 431501792.

Date/timePositionNaut miles runAvg speedWind from/ knotsBaromVisibWave heightAir tempDewpointWater temp
2017-Sep-20 06:35N 34°53' E 139°49'512.6
2017-Sep-20 06:09N 34°57' E 139°44'211.1
2017-Sep-20 06:00N 34°58' E 139°43'510.0
2017-Sep-20 05:31N 35°03' E 139°44'611.2
2017-Sep-20 05:00N 35°09' E 139°45'611.5
2017-Sep-20 04:30N 35°15' E 139°46'510.9
2017-Sep-20 04:00N 35°19' E 139°43'611.1
2017-Sep-20 03:30N 35°24' E 139°40'1 2.3
2017-Sep-20 03:00N 35°25' E 139°38'0 0.0
2017-Sep-20 02:31N 35°25' E 139°38'0 0.0
2017-Sep-20 02:00N 35°25' E 139°38'0 0.0
2017-Sep-20 01:27N 35°25' E 139°38'0 0.0
2017-Sep-20 01:00N 35°25' E 139°38'0 0.0
2017-Sep-20 00:30N 35°25' E 139°38'0 0.0
2017-Sep-20 00:00N 35°25' E 139°38'0 0.0
2017-Sep-19 23:31N 35°25' E 139°38'1 1.4
2017-Sep-19 23:00N 35°24' E 139°39'1 2.5
2017-Sep-19 22:30N 35°24' E 139°40'4 7.4
2017-Sep-19 22:00N 35°20' E 139°42'510.5
2017-Sep-19 21:30N 35°16' E 139°46'510.5
2017-Sep-19 21:00N 35°11' E 139°47'612.6
2017-Sep-19 20:31N 35°05' E 139°44'713.3
2017-Sep-19 20:00N 35°01' E 139°38'713.8
2017-Sep-19 19:30N 34°57' E 139°31'4 0.1
2017-Sep-18 11:58N 35°01' E 139°29'510.7
2017-Sep-18 11:30N 35°04' E 139°34'511.1
2017-Sep-18 11:00N 35°07' E 139°40'611.5
2017-Sep-18 10:30N 35°11' E 139°45'510.6
2017-Sep-18 09:59N 35°16' E 139°45'511.3
2017-Sep-18 09:30N 35°21' E 139°42'510.8
2017-Sep-18 09:01N 35°26' E 139°45'611.6
2017-Sep-18 08:31N 35°29' E 139°51'2 0.0
2017-Sep-16 09:51N 35°29' E 139°54'3 9.3
2017-Sep-16 09:30N 35°30' E 139°50'3 1.8
2017-Sep-16 07:48N 35°31' E 139°46'0 0.0
2017-Sep-16 07:25N 35°31' E 139°46'0 0.0
2017-Sep-16 06:22N 35°31' E 139°46'0 0.0
2017-Sep-16 06:00N 35°31' E 139°46'0 0.0
2017-Sep-16 05:28N 35°31' E 139°46'0 0.0
2017-Sep-16 04:58N 35°31' E 139°46'0 0.8
2017-Sep-16 04:30N 35°31' E 139°46'1 1.4
2017-Sep-16 04:00N 35°30' E 139°45'4 7.6
2017-Sep-16 03:30N 35°27' E 139°43'3 5.5
2017-Sep-16 03:00N 35°24' E 139°45'0 0.0
2017-Sep-16 02:28N 35°24' E 139°45'0 0.0
2017-Sep-16 01:58N 35°24' E 139°45'0 0.0
2017-Sep-16 01:25N 35°24' E 139°45'0 0.0
2017-Sep-16 00:55N 35°24' E 139°45'0 0.0
2017-Sep-16 00:28N 35°24' E 139°45'0 0.0
2017-Sep-15 23:58N 35°24' E 139°45'0 0.0
2017-Sep-15 23:29N 35°24' E 139°45'5 9.4
2017-Sep-15 23:00N 35°20' E 139°43'611.9
2017-Sep-15 22:30N 35°15' E 139°47'611.1
2017-Sep-15 22:00N 35°09' E 139°46'611.7
2017-Sep-15 21:30N 35°04' E 139°43'611.8
2017-Sep-15 21:00N 35°00' E 139°38'612.5
2017-Sep-15 20:29N 34°57' E 139°31'  
2017-Sep-11 08:10N 35°03' E 139°32'210.9
2017-Sep-11 08:00N 35°04' E 139°33'611.7
2017-Sep-11 07:30N 35°07' E 139°40'611.5
2017-Sep-11 07:00N 35°11' E 139°44'510.5
2017-Sep-11 06:30N 35°16' E 139°46'611.1
2017-Sep-11 06:00N 35°21' E 139°43'510.1
2017-Sep-11 05:30N 35°25' E 139°45'611.4
2017-Sep-11 05:00N 35°29' E 139°50'611.1
2017-Sep-11 04:30N 35°32' E 139°56'2 0.1
2017-Sep-10 13:46N 35°30' E 139°54'312.4
2017-Sep-10 13:30N 35°28' E 139°51'612.2
2017-Sep-10 13:00N 35°24' E 139°46'611.4
2017-Sep-10 12:30N 35°18' E 139°45'611.7
2017-Sep-10 12:00N 35°13' E 139°47'612.8
2017-Sep-10 11:31N 35°07' E 139°44'713.9
2017-Sep-10 11:01N 35°01' E 139°39'814.1
2017-Sep-10 10:27N 34°56' E 139°32'  
Track history (hours):
 
Tides and Currents Weather Stations Pressure Air Temp Water Temp Dewpoint Dewpoint Depression Visibility Wind Speed Wind Dir Waves Ship Positions

Sangen Maru

Last reported at 2017-Sep-20 06:35 UTC. Time now 2017-Sep-25 13:35 UTC.
Position N 34°53' E 139°49'.

Length 72 m; draft 4.5 m.

Type: Tanker. MMSI: 431501792.

Date/timePositionNaut miles runAvg speedWind from/ knotsBaromVisibWave heightAir tempDewpointWater temp
2017-Sep-20 06:35N 34°53' E 139°49'512.6
2017-Sep-20 06:09N 34°57' E 139°44'211.1
2017-Sep-20 06:00N 34°58' E 139°43'510.0
2017-Sep-20 05:31N 35°03' E 139°44'611.2
2017-Sep-20 05:00N 35°09' E 139°45'611.5
2017-Sep-20 04:30N 35°15' E 139°46'510.9
2017-Sep-20 04:00N 35°19' E 139°43'611.1
2017-Sep-20 03:30N 35°24' E 139°40'1 2.3
2017-Sep-20 03:00N 35°25' E 139°38'0 0.0
2017-Sep-20 02:31N 35°25' E 139°38'0 0.0
2017-Sep-20 02:00N 35°25' E 139°38'0 0.0
2017-Sep-20 01:27N 35°25' E 139°38'0 0.0
2017-Sep-20 01:00N 35°25' E 139°38'0 0.0
2017-Sep-20 00:30N 35°25' E 139°38'0 0.0
2017-Sep-20 00:00N 35°25' E 139°38'0 0.0
2017-Sep-19 23:31N 35°25' E 139°38'1 1.4
2017-Sep-19 23:00N 35°24' E 139°39'1 2.5
2017-Sep-19 22:30N 35°24' E 139°40'4 7.4
2017-Sep-19 22:00N 35°20' E 139°42'510.5
2017-Sep-19 21:30N 35°16' E 139°46'510.5
2017-Sep-19 21:00N 35°11' E 139°47'612.6
2017-Sep-19 20:31N 35°05' E 139°44'713.3
2017-Sep-19 20:00N 35°01' E 139°38'713.8
2017-Sep-19 19:30N 34°57' E 139°31'4 0.1
2017-Sep-18 11:58N 35°01' E 139°29'510.7
2017-Sep-18 11:30N 35°04' E 139°34'511.1
2017-Sep-18 11:00N 35°07' E 139°40'611.5
2017-Sep-18 10:30N 35°11' E 139°45'510.6
2017-Sep-18 09:59N 35°16' E 139°45'511.3
2017-Sep-18 09:30N 35°21' E 139°42'510.8
2017-Sep-18 09:01N 35°26' E 139°45'611.6
2017-Sep-18 08:31N 35°29' E 139°51'2 0.0
2017-Sep-16 09:51N 35°29' E 139°54'3 9.3
2017-Sep-16 09:30N 35°30' E 139°50'3 1.8
2017-Sep-16 07:48N 35°31' E 139°46'0 0.0
2017-Sep-16 07:25N 35°31' E 139°46'0 0.0
2017-Sep-16 06:22N 35°31' E 139°46'0 0.0
2017-Sep-16 06:00N 35°31' E 139°46'0 0.0
2017-Sep-16 05:28N 35°31' E 139°46'0 0.0
2017-Sep-16 04:58N 35°31' E 139°46'0 0.8
2017-Sep-16 04:30N 35°31' E 139°46'1 1.4
2017-Sep-16 04:00N 35°30' E 139°45'4 7.6
2017-Sep-16 03:30N 35°27' E 139°43'3 5.5
2017-Sep-16 03:00N 35°24' E 139°45'0 0.0
2017-Sep-16 02:28N 35°24' E 139°45'0 0.0
2017-Sep-16 01:58N 35°24' E 139°45'0 0.0
2017-Sep-16 01:25N 35°24' E 139°45'0 0.0
2017-Sep-16 00:55N 35°24' E 139°45'0 0.0
2017-Sep-16 00:28N 35°24' E 139°45'0 0.0
2017-Sep-15 23:58N 35°24' E 139°45'0 0.0
2017-Sep-15 23:29N 35°24' E 139°45'5 9.4
2017-Sep-15 23:00N 35°20' E 139°43'611.9
2017-Sep-15 22:30N 35°15' E 139°47'611.1
2017-Sep-15 22:00N 35°09' E 139°46'611.7
2017-Sep-15 21:30N 35°04' E 139°43'611.8
2017-Sep-15 21:00N 35°00' E 139°38'612.5
2017-Sep-15 20:29N 34°57' E 139°31'  
2017-Sep-11 08:10N 35°03' E 139°32'210.9
2017-Sep-11 08:00N 35°04' E 139°33'611.7
2017-Sep-11 07:30N 35°07' E 139°40'611.5
2017-Sep-11 07:00N 35°11' E 139°44'510.5
2017-Sep-11 06:30N 35°16' E 139°46'611.1
2017-Sep-11 06:00N 35°21' E 139°43'510.1
2017-Sep-11 05:30N 35°25' E 139°45'611.4
2017-Sep-11 05:00N 35°29' E 139°50'611.1
2017-Sep-11 04:30N 35°32' E 139°56'2 0.1
2017-Sep-10 13:46N 35°30' E 139°54'312.4
2017-Sep-10 13:30N 35°28' E 139°51'612.2
2017-Sep-10 13:00N 35°24' E 139°46'611.4
2017-Sep-10 12:30N 35°18' E 139°45'611.7
2017-Sep-10 12:00N 35°13' E 139°47'612.8
2017-Sep-10 11:31N 35°07' E 139°44'713.9
2017-Sep-10 11:01N 35°01' E 139°39'814.1
2017-Sep-10 10:27N 34°56' E 139°32'  

Dump ship's entire track history